Time;durP1;ratioP1;P1;durP2;ratioP2;P2;SDS_P1;SDS_P2;PMS_P1;PMS_P2;Temp;Humidity;BMP_temperature;BMP_pressure;BME280_temperature;BME280_humidity;BME280_pressure;Samples;Min_cycle;Max_cycle;Signal;HPM_P1;HPM_P2
2022/11/10 00:00:14;;;;;;;27.70;14.73;;;;;;;;;;6254038;22;20007;-81
2022/11/10 00:02:42;;;;;;;26.02;13.07;;;;;;;;;;6280744;22;19996;-81
2022/11/10 00:05:09;;;;;;;28.63;15.15;;;;;;;;;;6254318;22;20344;-82
2022/11/10 00:07:35;;;;;;;23.90;14.13;;;;;;;;;;6252975;22;20004;-81
2022/11/10 00:10:01;;;;;;;26.27;14.73;;;;;;;;;;6254282;22;20008;-81
2022/11/10 00:12:27;;;;;;;23.33;13.50;;;;;;;;;;6280109;22;20023;-81
2022/11/10 00:17:37;;;;;;;23.83;13.80;;;;;;;;;;6280415;22;20097;-81
2022/11/10 00:20:04;;;;;;;23.42;14.05;;;;;;;;;;6253192;22;20007;-81
2022/11/10 00:22:30;;;;;;;26.77;14.50;;;;;;;;;;6253682;22;20054;-81
2022/11/10 00:24:56;;;;;;;24.63;15.30;;;;;;;;;;6253849;22;20007;-81
2022/11/10 00:27:23;;;;;;;23.02;14.50;;;;;;;;;;6253906;22;20012;-82
2022/11/10 00:29:49;;;;;;;23.92;13.63;;;;;;;;;;6281420;22;20026;-82
2022/11/10 00:32:15;;;;;;;26.95;15.50;;;;;;;;;;6253234;22;20673;-82
2022/11/10 00:34:41;;;;;;;29.65;14.50;;;;;;;;;;6282033;22;20008;-82
2022/11/10 00:37:07;;;;;;;27.77;15.18;;;;;;;;;;6255294;22;20011;-81
2022/11/10 00:39:33;;;;;;;24.85;14.52;;;;;;;;;;6280565;22;20421;-82
2022/11/10 00:41:59;;;;;;;27.23;15.25;;;;;;;;;;6281095;22;19991;-80
2022/11/10 00:44:25;;;;;;;24.40;14.45;;;;;;;;;;6252478;22;20007;-82
2022/11/10 00:46:51;;;;;;;25.90;13.77;;;;;;;;;;6253383;22;20073;-82
2022/11/10 00:49:17;;;;;;;26.70;14.40;;;;;;;;;;6280289;22;20038;-81
2022/11/10 00:51:43;;;;;;;29.50;14.45;;;;;;;;;;6279904;22;20008;-81
2022/11/10 00:54:09;;;;;;;31.38;15.52;;;;;;;;;;6254351;22;20026;-81
2022/11/10 00:56:35;;;;;;;29.90;14.95;;;;;;;;;;6253246;22;20004;-82
2022/11/10 00:59:01;;;;;;;28.45;14.82;;;;;;;;;;6252648;22;20081;-81
2022/11/10 01:01:27;;;;;;;28.60;15.88;;;;;;;;;;6254171;22;20007;-82
2022/11/10 01:03:53;;;;;;;25.17;14.52;;;;;;;;;;6282042;22;20479;-81
2022/11/10 01:06:20;;;;;;;25.85;15.32;;;;;;;;;;6254338;22;20004;-81
2022/11/10 01:08:46;;;;;;;28.67;14.63;;;;;;;;;;6253533;22;20003;-81
2022/11/10 01:11:23;;;;;;;28.02;14.77;;;;;;;;;;6280616;22;19992;-81
2022/11/10 01:13:50;;;;;;;28.45;15.00;;;;;;;;;;6253662;22;20079;-81
2022/11/10 01:16:19;;;;;;;27.95;14.77;;;;;;;;;;6281216;22;20000;-82
2022/11/10 01:18:49;;;;;;;30.40;15.70;;;;;;;;;;6254946;22;20008;-82
2022/11/10 01:21:15;;;;;;;28.92;15.77;;;;;;;;;;6280506;22;20313;-81
2022/11/10 01:23:41;;;;;;;29.92;14.98;;;;;;;;;;6253220;22;20039;-82
2022/11/10 01:26:07;;;;;;;32.70;14.75;;;;;;;;;;6280931;22;20002;-81
2022/11/10 01:28:34;;;;;;;31.13;14.65;;;;;;;;;;6280801;22;20313;-82
2022/11/10 01:31:05;;;;;;;26.05;13.82;;;;;;;;;;6279457;22;20003;-82
2022/11/10 01:33:31;;;;;;;31.60;15.40;;;;;;;;;;6253315;22;20085;-81
2022/11/10 01:35:57;;;;;;;30.40;15.13;;;;;;;;;;6280125;22;20031;-82
2022/11/10 01:38:26;;;;;;;32.33;15.80;;;;;;;;;;6280509;22;19999;-80
2022/11/10 01:40:51;;;;;;;25.23;14.20;;;;;;;;;;6253341;22;20703;-82
2022/11/10 01:43:17;;;;;;;31.67;16.35;;;;;;;;;;6280309;22;20000;-81
2022/11/10 01:45:53;;;;;;;28.00;15.30;;;;;;;;;;6253365;22;20061;-82
2022/11/10 01:48:35;;;;;;;31.73;15.38;;;;;;;;;;6281070;22;20004;-82
2022/11/10 01:51:09;;;;;;;25.67;13.57;;;;;;;;;;6253794;22;20079;-81
2022/11/10 01:53:38;;;;;;;28.63;14.95;;;;;;;;;;6253978;22;20011;-82
2022/11/10 01:56:05;;;;;;;28.95;14.10;;;;;;;;;;6280435;22;20011;-81
2022/11/10 01:58:33;;;;;;;24.15;12.70;;;;;;;;;;6252763;22;20060;-81
2022/11/10 02:00:59;;;;;;;27.75;13.43;;;;;;;;;;6253037;22;20011;-81
2022/11/10 02:03:40;;;;;;;23.20;12.82;;;;;;;;;;6280473;22;20340;-82
2022/11/10 02:06:06;;;;;;;24.85;13.13;;;;;;;;;;6280683;22;19995;-82
2022/11/10 02:08:32;;;;;;;28.48;13.60;;;;;;;;;;6253105;22;20200;-81
2022/11/10 02:10:58;;;;;;;21.45;12.25;;;;;;;;;;6279924;22;20007;-81
2022/11/10 02:13:25;;;;;;;24.83;12.80;;;;;;;;;;6280020;22;20004;-82
2022/11/10 02:15:51;;;;;;;24.80;13.13;;;;;;;;;;6280273;22;20026;-82
2022/11/10 02:18:17;;;;;;;24.48;13.35;;;;;;;;;;6252820;22;20003;-81
2022/11/10 02:20:44;;;;;;;22.08;12.82;;;;;;;;;;6280271;22;20336;-81
2022/11/10 02:23:14;;;;;;;22.48;12.27;;;;;;;;;;6280793;22;20083;-82
2022/11/10 02:25:40;;;;;;;23.48;12.10;;;;;;;;;;6256468;22;20010;-79
2022/11/10 02:28:06;;;;;;;23.90;13.45;;;;;;;;;;6261063;22;20030;-80
2022/11/10 02:30:32;;;;;;;27.20;14.77;;;;;;;;;;6258170;22;20015;-80
2022/11/10 02:32:58;;;;;;;23.00;11.68;;;;;;;;;;6282775;22;20101;-80
2022/11/10 02:35:24;;;;;;;21.75;11.45;;;;;;;;;;6284558;22;20031;-81
2022/11/10 02:37:51;;;;;;;26.42;13.98;;;;;;;;;;6280701;22;20003;-81
2022/11/10 02:40:17;;;;;;;26.73;13.77;;;;;;;;;;6253411;22;20007;-81
2022/11/10 02:42:43;;;;;;;25.83;12.52;;;;;;;;;;6279143;22;20003;-82
2022/11/10 02:45:09;;;;;;;28.13;14.52;;;;;;;;;;6252410;22;20011;-81
2022/11/10 02:47:35;;;;;;;24.92;14.48;;;;;;;;;;6280259;22;20000;-81
2022/11/10 02:50:01;;;;;;;26.55;14.95;;;;;;;;;;6251837;22;20053;-81
2022/11/10 02:52:27;;;;;;;26.58;14.55;;;;;;;;;;6280804;22;20431;-82
2022/11/10 02:54:53;;;;;;;26.88;14.32;;;;;;;;;;6252987;22;20007;-82
2022/11/10 02:57:19;;;;;;;29.55;14.68;;;;;;;;;;6280370;22;20008;-82
2022/11/10 02:59:45;;;;;;;27.48;14.10;;;;;;;;;;6254438;22;20000;-80
2022/11/10 03:02:11;;;;;;;26.80;14.60;;;;;;;;;;6284444;22;20000;-81
2022/11/10 03:04:37;;;;;;;28.17;14.60;;;;;;;;;;6256897;22;20428;-81
2022/11/10 03:07:03;;;;;;;24.25;14.10;;;;;;;;;;6283709;22;19996;-81
2022/11/10 03:09:29;;;;;;;26.25;14.20;;;;;;;;;;6279209;22;20000;-81
2022/11/10 03:11:55;;;;;;;27.67;14.55;;;;;;;;;;6253332;22;20068;-81
2022/11/10 03:14:21;;;;;;;26.95;15.05;;;;;;;;;;6252790;22;20011;-82
2022/11/10 03:16:47;;;;;;;27.95;15.05;;;;;;;;;;6252627;22;20004;-82
2022/11/10 03:19:13;;;;;;;28.35;14.27;;;;;;;;;;6278927;22;20008;-82
2022/11/10 03:21:39;;;;;;;25.20;14.20;;;;;;;;;;6253035;22;20336;-82
2022/11/10 03:24:05;;;;;;;22.98;12.48;;;;;;;;;;6281198;22;20000;-82
2022/11/10 03:26:31;;;;;;;25.75;14.35;;;;;;;;;;6281740;22;20000;-82
2022/11/10 03:28:57;;;;;;;23.98;14.13;;;;;;;;;;6281800;22;20020;-81
2022/11/10 03:31:23;;;;;;;25.23;14.18;;;;;;;;;;6281902;22;20026;-81
2022/11/10 03:33:49;;;;;;;23.52;13.98;;;;;;;;;;6255393;22;20010;-81
2022/11/10 03:36:15;;;;;;;25.88;14.77;;;;;;;;;;6282902;22;20019;-81
2022/11/10 03:38:41;;;;;;;25.20;14.40;;;;;;;;;;6255432;22;20003;-81
2022/11/10 03:41:07;;;;;;;25.90;14.15;;;;;;;;;;6253670;22;20004;-81
2022/11/10 03:43:33;;;;;;;27.05;14.70;;;;;;;;;;6254142;22;20004;-80
2022/11/10 03:45:59;;;;;;;24.63;14.13;;;;;;;;;;6282519;22;20003;-84
2022/11/10 03:48:25;;;;;;;26.98;15.95;;;;;;;;;;6281612;22;20010;-82
2022/11/10 03:50:51;;;;;;;27.40;14.48;;;;;;;;;;6281447;22;20004;-82
2022/11/10 03:53:18;;;;;;;27.40;16.08;;;;;;;;;;6253785;22;20403;-81
2022/11/10 03:55:44;;;;;;;30.27;16.90;;;;;;;;;;6255306;22;20008;-81
2022/11/10 03:58:10;;;;;;;31.67;15.40;;;;;;;;;;6254365;22;20007;-81
2022/11/10 04:00:36;;;;;;;29.95;15.73;;;;;;;;;;6281856;22;19999;-82
2022/11/10 04:03:02;;;;;;;26.20;14.75;;;;;;;;;;6281563;22;19996;-81
2022/11/10 04:10:59;;;;;;;27.75;14.95;;;;;;;;;;6282327;22;20014;-82
2022/11/10 04:16:10;;;;;;;31.25;15.80;;;;;;;;;;6283872;22;20038;-81
2022/11/10 04:18:36;;;;;;;28.20;15.57;;;;;;;;;;6283037;22;20374;-81
2022/11/10 04:21:03;;;;;;;27.40;14.68;;;;;;;;;;6283928;22;20436;-81
2022/11/10 04:23:33;;;;;;;30.70;15.80;;;;;;;;;;6282051;22;20070;-81
2022/11/10 04:28:47;;;;;;;25.73;14.32;;;;;;;;;;6285244;22;20018;-81
2022/11/10 04:31:14;;;;;;;24.70;13.52;;;;;;;;;;6255459;22;20000;-81
2022/11/10 04:33:40;;;;;;;25.63;14.80;;;;;;;;;;6254439;22;20004;-79
2022/11/10 04:36:07;;;;;;;25.45;14.95;;;;;;;;;;6254435;22;20014;-82
2022/11/10 04:38:33;;;;;;;27.95;14.65;;;;;;;;;;6281135;22;20000;-82
2022/11/10 04:40:59;;;;;;;24.38;13.90;;;;;;;;;;6281236;22;20007;-82
2022/11/10 04:43:25;;;;;;;24.48;13.90;;;;;;;;;;6254012;22;19996;-81
2022/11/10 04:45:51;;;;;;;24.95;12.25;;;;;;;;;;6282675;22;20007;-81
2022/11/10 04:48:17;;;;;;;24.35;13.77;;;;;;;;;;6253048;22;20008;-82
2022/11/10 04:50:43;;;;;;;24.40;13.35;;;;;;;;;;6253290;22;20034;-82
2022/11/10 04:53:10;;;;;;;21.20;11.70;;;;;;;;;;6279553;22;20000;-80
2022/11/10 04:55:39;;;;;;;23.83;12.50;;;;;;;;;;6279305;22;20003;-82
2022/11/10 04:58:05;;;;;;;25.00;13.32;;;;;;;;;;6279258;22;20008;-81
2022/11/10 05:00:31;;;;;;;22.98;13.15;;;;;;;;;;6252713;22;20004;-81
2022/11/10 05:03:02;;;;;;;20.23;11.57;;;;;;;;;;6251537;22;20056;-81
2022/11/10 05:05:28;;;;;;;21.58;12.32;;;;;;;;;;6253062;22;20019;-82
2022/11/10 05:07:54;;;;;;;22.80;12.90;;;;;;;;;;6252181;22;20443;-81
2022/11/10 05:10:20;;;;;;;22.17;11.85;;;;;;;;;;6279798;22;20073;-83
2022/11/10 05:12:46;;;;;;;21.55;11.20;;;;;;;;;;6280604;22;20051;-82
2022/11/10 05:15:12;;;;;;;20.38;11.88;;;;;;;;;;6254130;22;20270;-82
2022/11/10 05:17:38;;;;;;;20.40;12.30;;;;;;;;;;6253997;22;20050;-80
2022/11/10 05:20:05;;;;;;;27.15;14.82;;;;;;;;;;6280172;22;20004;-81
2022/11/10 05:22:31;;;;;;;20.63;12.88;;;;;;;;;;6253385;22;20027;-81
2022/11/10 05:24:57;;;;;;;22.33;10.98;;;;;;;;;;6252729;22;20439;-81
2022/11/10 05:27:23;;;;;;;16.67;9.85;;;;;;;;;;6282019;22;20093;-83
2022/11/10 05:29:49;;;;;;;19.38;10.45;;;;;;;;;;6279942;22;19995;-82
2022/11/10 05:32:15;;;;;;;17.75;10.32;;;;;;;;;;6281155;22;20328;-82
2022/11/10 05:34:41;;;;;;;18.70;11.00;;;;;;;;;;6281150;22;20003;-82
2022/11/10 05:37:07;;;;;;;18.05;10.50;;;;;;;;;;6253342;22;20469;-82
2022/11/10 05:39:33;;;;;;;19.20;11.13;;;;;;;;;;6251983;22;20038;-81
2022/11/10 05:41:59;;;;;;;19.48;11.15;;;;;;;;;;6252981;22;20027;-82
2022/11/10 05:44:25;;;;;;;19.30;11.32;;;;;;;;;;6252817;22;20043;-81
2022/11/10 05:46:51;;;;;;;17.40;10.18;;;;;;;;;;6256073;22;19995;-80
2022/11/10 05:49:17;;;;;;;21.30;12.00;;;;;;;;;;6286687;22;20497;-80
2022/11/10 05:51:44;;;;;;;20.17;10.70;;;;;;;;;;6281912;22;20077;-82
2022/11/10 05:54:10;;;;;;;20.98;11.63;;;;;;;;;;6278506;22;20000;-83
2022/11/10 05:56:36;;;;;;;21.17;11.57;;;;;;;;;;6280525;22;20029;-83
2022/11/10 05:59:02;;;;;;;28.33;14.07;;;;;;;;;;6252383;22;20008;-82
2022/11/10 06:01:28;;;;;;;19.48;10.85;;;;;;;;;;6279163;22;20027;-82
2022/11/10 06:03:55;;;;;;;18.48;10.38;;;;;;;;;;6279475;22;20527;-82
2022/11/10 06:06:21;;;;;;;17.88;9.98;;;;;;;;;;6250317;22;20386;-82
2022/11/10 06:08:48;;;;;;;18.48;10.27;;;;;;;;;;6278915;22;20000;-82
2022/11/10 06:11:15;;;;;;;17.33;9.60;;;;;;;;;;6250653;22;20069;-80
2022/11/10 06:13:41;;;;;;;19.38;9.45;;;;;;;;;;6280211;22;20003;-82
2022/11/10 06:16:07;;;;;;;15.18;9.80;;;;;;;;;;6253847;22;20007;-81
2022/11/10 06:18:33;;;;;;;18.58;9.98;;;;;;;;;;6280004;22;20012;-81
2022/11/10 06:20:59;;;;;;;17.33;10.40;;;;;;;;;;6283648;22;20023;-80
2022/11/10 06:23:25;;;;;;;17.52;9.27;;;;;;;;;;6282685;22;20021;-81
2022/11/10 06:25:52;;;;;;;15.85;9.90;;;;;;;;;;6253498;22;20498;-81
2022/11/10 06:28:18;;;;;;;15.98;8.55;;;;;;;;;;6254303;22;20465;-80
2022/11/10 06:30:44;;;;;;;16.83;10.38;;;;;;;;;;6253479;22;20035;-82
2022/11/10 06:33:10;;;;;;;16.55;8.45;;;;;;;;;;6281153;22;20087;-82
2022/11/10 06:35:36;;;;;;;15.23;9.40;;;;;;;;;;6279553;22;20383;-82
2022/11/10 06:38:03;;;;;;;17.00;9.27;;;;;;;;;;6279737;22;20463;-82
2022/11/10 06:40:30;;;;;;;17.38;9.75;;;;;;;;;;6280105;22;20026;-82
2022/11/10 06:42:57;;;;;;;17.90;9.95;;;;;;;;;;6278151;22;20006;-81
2022/11/10 06:45:23;;;;;;;16.85;10.07;;;;;;;;;;6279746;22;20042;-82
2022/11/10 06:47:58;;;;;;;15.35;10.50;;;;;;;;;;6280061;22;20030;-81
2022/11/10 06:50:24;;;;;;;19.35;11.77;;;;;;;;;;6253195;22;20093;-81
2022/11/10 06:52:53;;;;;;;31.73;19.33;;;;;;;;;;6252613;22;20004;-82
2022/11/10 06:55:19;;;;;;;26.83;16.92;;;;;;;;;;6253472;22;20004;-82
2022/11/10 06:57:45;;;;;;;27.65;18.35;;;;;;;;;;6279828;22;20483;-82
2022/11/10 07:00:12;;;;;;;26.48;18.13;;;;;;;;;;6282270;22;19996;-82
2022/11/10 07:02:38;;;;;;;21.15;13.93;;;;;;;;;;6253933;22;20000;-80
2022/11/10 07:05:04;;;;;;;20.45;13.10;;;;;;;;;;6254727;22;20026;-82
2022/11/10 07:07:30;;;;;;;23.05;14.45;;;;;;;;;;6282465;22;20010;-81
2022/11/10 07:09:56;;;;;;;24.23;13.57;;;;;;;;;;6254624;22;20023;-81
2022/11/10 07:12:22;;;;;;;21.73;14.48;;;;;;;;;;6254838;22;20331;-81
2022/11/10 07:14:48;;;;;;;27.00;19.63;;;;;;;;;;6256903;22;20003;-81
2022/11/10 07:17:14;;;;;;;31.75;19.98;;;;;;;;;;6255623;22;20354;-81
2022/11/10 07:19:40;;;;;;;18.98;12.07;;;;;;;;;;6255193;22;20023;-82
2022/11/10 07:22:07;;;;;;;27.15;18.25;;;;;;;;;;6282905;22;20006;-82
2022/11/10 07:24:33;;;;;;;25.48;16.30;;;;;;;;;;6255608;22;20007;-82
2022/11/10 07:26:59;;;;;;;25.85;15.43;;;;;;;;;;6255280;22;20540;-82
2022/11/10 07:29:25;;;;;;;20.20;12.38;;;;;;;;;;6255964;22;20436;-82
2022/11/10 07:31:52;;;;;;;19.98;12.10;;;;;;;;;;6281888;22;20000;-82
2022/11/10 07:34:18;;;;;;;22.05;13.13;;;;;;;;;;6282602;22;20007;-82
2022/11/10 07:36:44;;;;;;;22.45;11.52;;;;;;;;;;6282572;22;20074;-82
2022/11/10 07:39:11;;;;;;;20.17;11.88;;;;;;;;;;6253056;22;20008;-81
2022/11/10 07:41:37;;;;;;;19.65;12.00;;;;;;;;;;6254025;22;20026;-81
2022/11/10 07:44:03;;;;;;;18.52;11.32;;;;;;;;;;6282057;22;20012;-81
2022/11/10 07:46:29;;;;;;;19.00;11.25;;;;;;;;;;6281768;22;20091;-81
2022/11/10 07:48:55;;;;;;;20.88;11.60;;;;;;;;;;6280454;22;20000;-81
2022/11/10 07:51:21;;;;;;;19.90;12.02;;;;;;;;;;6254057;22;20007;-82
2022/11/10 07:53:47;;;;;;;17.73;11.52;;;;;;;;;;6281064;22;20004;-81
2022/11/10 07:56:13;;;;;;;19.27;11.85;;;;;;;;;;6280806;22;20041;-82
2022/11/10 07:58:39;;;;;;;16.67;11.02;;;;;;;;;;6281020;22;20011;-80
2022/11/10 08:01:05;;;;;;;16.90;10.25;;;;;;;;;;6281181;22;20389;-81
2022/11/10 08:03:31;;;;;;;20.05;11.55;;;;;;;;;;6280761;22;19999;-82
2022/11/10 08:05:57;;;;;;;20.75;11.55;;;;;;;;;;6281725;22;20323;-81
2022/11/10 08:08:23;;;;;;;18.15;10.88;;;;;;;;;;6279240;22;20010;-81
2022/11/10 08:10:49;;;;;;;16.25;9.90;;;;;;;;;;6252077;22;20008;-81
2022/11/10 08:13:15;;;;;;;18.48;11.00;;;;;;;;;;6283612;22;19999;-80
2022/11/10 08:15:42;;;;;;;16.75;10.98;;;;;;;;;;6284772;22;19999;-81
2022/11/10 08:18:18;;;;;;;16.80;10.07;;;;;;;;;;6254609;22;19996;-80
2022/11/10 08:20:44;;;;;;;14.50;8.93;;;;;;;;;;6254473;22;20391;-80
2022/11/10 08:23:11;;;;;;;16.33;9.65;;;;;;;;;;6254217;22;20004;-82
2022/11/10 08:25:37;;;;;;;15.93;9.95;;;;;;;;;;6256032;22;20038;-81
2022/11/10 08:28:05;;;;;;;14.85;9.07;;;;;;;;;;6282765;22;20007;-80
2022/11/10 08:30:32;;;;;;;16.42;10.15;;;;;;;;;;6282009;22;20000;-81
2022/11/10 08:32:59;;;;;;;14.90;8.85;;;;;;;;;;6282886;22;20027;-81
2022/11/10 08:35:26;;;;;;;14.80;9.25;;;;;;;;;;6282780;22;20007;-81
2022/11/10 08:37:52;;;;;;;15.25;9.90;;;;;;;;;;6282175;22;20465;-81
2022/11/10 08:40:19;;;;;;;15.82;8.98;;;;;;;;;;6281407;22;20022;-82
2022/11/10 08:42:45;;;;;;;13.70;8.55;;;;;;;;;;6254012;22;20004;-81
2022/11/10 08:45:11;;;;;;;12.68;8.27;;;;;;;;;;6282497;22;20014;-82
2022/11/10 08:47:37;;;;;;;13.93;8.18;;;;;;;;;;6256945;22;20057;-82
2022/11/10 08:50:04;;;;;;;14.50;8.05;;;;;;;;;;6284862;22;20029;-81
2022/11/10 08:52:30;;;;;;;11.75;7.63;;;;;;;;;;6285839;22;20007;-81
2022/11/10 08:54:56;;;;;;;12.55;7.97;;;;;;;;;;6288542;22;20000;-80
2022/11/10 08:57:22;;;;;;;11.95;7.28;;;;;;;;;;6263302;22;20065;-80
2022/11/10 08:59:48;;;;;;;12.93;8.32;;;;;;;;;;6292427;22;20016;-80
2022/11/10 09:02:14;;;;;;;11.93;7.68;;;;;;;;;;6293579;22;20427;-80
2022/11/10 09:04:40;;;;;;;11.90;7.43;;;;;;;;;;6292961;22;20019;-81
2022/11/10 09:07:06;;;;;;;10.15;6.55;;;;;;;;;;6258675;22;20008;-82
2022/11/10 09:09:32;;;;;;;9.52;6.05;;;;;;;;;;6256417;22;20007;-81
2022/11/10 09:11:58;;;;;;;9.60;5.60;;;;;;;;;;6283597;22;20000;-81
2022/11/10 09:14:24;;;;;;;9.95;5.43;;;;;;;;;;6284814;22;20042;-81
2022/11/10 09:16:50;;;;;;;9.40;5.75;;;;;;;;;;6282834;22;20339;-81
2022/11/10 09:19:16;;;;;;;8.57;5.13;;;;;;;;;;6286015;22;20049;-82
2022/11/10 09:21:42;;;;;;;8.02;4.60;;;;;;;;;;6261269;22;20004;-81
2022/11/10 09:24:08;;;;;;;7.22;4.55;;;;;;;;;;6260276;22;20435;-80
2022/11/10 09:26:34;;;;;;;7.85;5.10;;;;;;;;;;6285927;22;20014;-80
2022/11/10 09:29:00;;;;;;;9.48;5.30;;;;;;;;;;6258858;22;20027;-81
2022/11/10 09:31:26;;;;;;;8.40;5.03;;;;;;;;;;6282552;22;20031;-81
2022/11/10 09:33:52;;;;;;;9.02;5.50;;;;;;;;;;6284671;22;20025;-81
2022/11/10 09:36:18;;;;;;;8.55;5.10;;;;;;;;;;6258254;22;20091;-81
2022/11/10 09:38:44;;;;;;;8.45;4.97;;;;;;;;;;6254654;22;20012;-80
2022/11/10 09:41:14;;;;;;;9.20;5.38;;;;;;;;;;6283590;22;19996;-81
2022/11/10 09:43:40;;;;;;;8.65;4.60;;;;;;;;;;6282186;22;20063;-80
2022/11/10 09:46:13;;;;;;;8.10;4.95;;;;;;;;;;6255274;22;19999;-81
2022/11/10 09:48:47;;;;;;;10.35;6.68;;;;;;;;;;6284062;22;20000;-81
2022/11/10 09:51:17;;;;;;;9.48;5.60;;;;;;;;;;6284126;22;20009;-81
2022/11/10 09:53:47;;;;;;;9.20;5.05;;;;;;;;;;6280820;22;20065;-82
2022/11/10 09:56:19;;;;;;;7.85;4.28;;;;;;;;;;6254903;22;20031;-81
2022/11/10 09:58:46;;;;;;;7.28;4.65;;;;;;;;;;6281118;22;20078;-81
2022/11/10 10:01:35;;;;;;;8.10;4.60;;;;;;;;;;6255662;22;20004;-81
2022/11/10 10:04:15;;;;;;;7.85;4.32;;;;;;;;;;6263759;22;20006;-81
2022/11/10 10:06:47;;;;;;;8.93;4.35;;;;;;;;;;6257036;22;20004;-81
2022/11/10 10:09:26;;;;;;;6.68;4.00;;;;;;;;;;6283967;22;20038;-81
2022/11/10 10:11:58;;;;;;;6.57;4.10;;;;;;;;;;6254801;22;20007;-81
2022/11/10 10:14:28;;;;;;;7.00;3.70;;;;;;;;;;6258691;22;20007;-81
2022/11/10 10:16:59;;;;;;;5.95;3.63;;;;;;;;;;6282850;22;20003;-81
2022/11/10 10:19:51;;;;;;;6.70;3.55;;;;;;;;;;6288053;22;20030;-81
2022/11/10 10:22:17;;;;;;;8.67;5.53;;;;;;;;;;6277656;22;20000;-79
2022/11/10 10:24:43;;;;;;;9.02;5.25;;;;;;;;;;6258345;22;20014;-81
2022/11/10 10:27:20;;;;;;;7.97;5.10;;;;;;;;;;6284427;22;20059;-82
2022/11/10 10:29:48;;;;;;;9.10;5.45;;;;;;;;;;6283427;22;20015;-82
2022/11/10 10:32:15;;;;;;;9.15;6.57;;;;;;;;;;6283369;22;20062;-82
2022/11/10 10:34:41;;;;;;;13.68;7.38;;;;;;;;;;6283469;22;20003;-82
2022/11/10 10:37:29;;;;;;;13.45;7.53;;;;;;;;;;6284414;22;20011;-82
2022/11/10 10:39:55;;;;;;;11.27;6.53;;;;;;;;;;6255423;22;20026;-82
2022/11/10 10:42:28;;;;;;;9.43;5.88;;;;;;;;;;6258650;22;20000;-82
2022/11/10 10:45:14;;;;;;;8.82;5.85;;;;;;;;;;6255577;22;20019;-82
2022/11/10 10:47:40;;;;;;;8.00;4.95;;;;;;;;;;6280989;22;20027;-79
2022/11/10 10:50:24;;;;;;;8.10;5.00;;;;;;;;;;6283709;22;20006;-80
2022/11/10 10:53:22;;;;;;;8.20;5.53;;;;;;;;;;6282243;22;20079;-79
2022/11/10 10:55:58;;;;;;;8.63;4.80;;;;;;;;;;6128815;23;20010;-81
2022/11/10 10:58:28;;;;;;;7.57;5.18;;;;;;;;;;6129640;23;20010;-80
2022/11/10 11:00:54;;;;;;;8.75;5.43;;;;;;;;;;6131487;23;20002;-82
2022/11/10 11:03:29;;;;;;;7.47;4.32;;;;;;;;;;6133477;23;20012;-84
2022/11/10 11:06:19;;;;;;;8.55;4.80;;;;;;;;;;6111275;23;20006;-82
2022/11/10 11:08:55;;;;;;;8.38;5.43;;;;;;;;;;6113218;23;20020;-84
2022/11/10 11:11:25;;;;;;;7.60;4.75;;;;;;;;;;6134160;23;20020;-83
2022/11/10 11:13:51;;;;;;;8.18;4.93;;;;;;;;;;6133533;23;20088;-83
2022/11/10 11:16:17;;;;;;;8.57;4.97;;;;;;;;;;6111135;23;20013;-82
2022/11/10 11:18:43;;;;;;;8.00;4.90;;;;;;;;;;6108718;23;20025;-83
2022/11/10 11:21:27;;;;;;;7.53;5.25;;;;;;;;;;6108167;23;20017;-84
2022/11/10 11:24:01;;;;;;;7.70;4.43;;;;;;;;;;6107772;23;20267;-83
2022/11/10 11:26:33;;;;;;;7.07;4.35;;;;;;;;;;6132802;23;20013;-83
2022/11/10 11:29:05;;;;;;;8.05;4.70;;;;;;;;;;6134575;23;20006;-84
2022/11/10 11:31:31;;;;;;;8.48;4.07;;;;;;;;;;6220831;22;20008;-84
2022/11/10 11:34:15;;;;;;;8.15;5.05;;;;;;;;;;6261837;22;20003;-83
2022/11/10 11:36:53;;;;;;;7.40;4.32;;;;;;;;;;6257163;22;20008;-84
2022/11/10 11:39:24;;;;;;;9.85;5.20;;;;;;;;;;6283842;22;20063;-83
2022/11/10 11:41:56;;;;;;;8.70;5.32;;;;;;;;;;6259339;22;20000;-83
2022/11/10 11:44:28;;;;;;;9.82;6.38;;;;;;;;;;6259989;22;20012;-83
2022/11/10 11:47:13;;;;;;;9.40;5.60;;;;;;;;;;6288613;22;20026;-83
2022/11/10 11:49:53;;;;;;;8.75;5.45;;;;;;;;;;6260316;22;19992;-84
2022/11/10 11:52:22;;;;;;;10.00;5.50;;;;;;;;;;6285582;22;20471;-83
2022/11/10 11:54:51;;;;;;;8.70;5.07;;;;;;;;;;6260370;22;20099;-83
2022/11/10 11:57:29;;;;;;;11.48;6.30;;;;;;;;;;6263287;22;20019;-83
2022/11/10 11:59:55;;;;;;;9.32;5.30;;;;;;;;;;6290425;22;20476;-85
2022/11/10 12:02:21;;;;;;;10.18;5.60;;;;;;;;;;6287914;22;20018;-84
2022/11/10 12:05:10;;;;;;;9.00;5.75;;;;;;;;;;6260895;22;20019;-85
2022/11/10 12:07:44;;;;;;;8.27;4.60;;;;;;;;;;6206349;22;19992;-81
2022/11/10 12:10:28;;;;;;;11.57;6.57;;;;;;;;;;6272114;22;20348;-82
2022/11/10 12:13:03;;;;;;;8.77;5.32;;;;;;;;;;6261294;22;20000;-83
2022/11/10 12:15:29;;;;;;;8.68;5.28;;;;;;;;;;6287860;22;19996;-83
2022/11/10 12:17:57;;;;;;;8.77;5.03;;;;;;;;;;6287393;22;20011;-81
2022/11/10 12:20:38;;;;;;;7.70;5.25;;;;;;;;;;6288995;22;19999;-84
2022/11/10 12:23:07;;;;;;;8.52;5.53;;;;;;;;;;6260486;22;20297;-82
2022/11/10 12:25:36;;;;;;;8.55;5.43;;;;;;;;;;6289108;22;20004;-83
2022/11/10 12:28:23;;;;;;;9.48;5.22;;;;;;;;;;6262066;22;20004;-83
2022/11/10 12:30:50;;;;;;;8.57;5.10;;;;;;;;;;6287614;22;20029;-83
2022/11/10 12:33:22;;;;;;;8.82;5.70;;;;;;;;;;6286801;22;20049;-84
2022/11/10 12:35:48;;;;;;;8.48;5.93;;;;;;;;;;6258677;22;20003;-81
2022/11/10 12:38:20;;;;;;;9.13;5.32;;;;;;;;;;6287384;22;20003;-83
2022/11/10 12:40:48;;;;;;;10.77;5.95;;;;;;;;;;6258853;22;20004;-83
2022/11/10 12:43:25;;;;;;;7.80;5.40;;;;;;;;;;6257438;22;20008;-82
2022/11/10 12:45:53;;;;;;;9.18;5.75;;;;;;;;;;6285842;22;20007;-83
2022/11/10 12:48:20;;;;;;;10.15;5.80;;;;;;;;;;6285482;22;20078;-83
2022/11/10 12:50:46;;;;;;;12.05;6.30;;;;;;;;;;6257881;22;20046;-83
2022/11/10 12:53:18;;;;;;;9.65;5.90;;;;;;;;;;6285660;22;19996;-83
2022/11/10 12:55:49;;;;;;;8.93;5.82;;;;;;;;;;6286902;22;20004;-82
2022/11/10 12:58:15;;;;;;;9.63;6.75;;;;;;;;;;6286821;22;19999;-84
2022/11/10 13:00:42;;;;;;;11.10;6.38;;;;;;;;;;6286833;22;20091;-83
2022/11/10 13:03:29;;;;;;;10.80;6.53;;;;;;;;;;6258115;22;20004;-82
2022/11/10 13:06:02;;;;;;;10.95;6.05;;;;;;;;;;6259407;22;20090;-83
2022/11/10 13:08:41;;;;;;;10.07;6.53;;;;;;;;;;6258808;22;20007;-83
2022/11/10 13:11:07;;;;;;;9.52;6.00;;;;;;;;;;6258572;22;20331;-84
2022/11/10 13:13:46;;;;;;;9.57;6.22;;;;;;;;;;6286083;22;20034;-84
2022/11/10 13:16:31;;;;;;;9.82;6.30;;;;;;;;;;6286451;22;20001;-83
2022/11/10 13:18:57;;;;;;;10.13;6.25;;;;;;;;;;6260296;22;20049;-82
2022/11/10 13:21:42;;;;;;;10.38;6.18;;;;;;;;;;6259979;22;19995;-84
2022/11/10 13:24:23;;;;;;;8.57;5.93;;;;;;;;;;6284473;22;19995;-84
2022/11/10 13:26:56;;;;;;;10.30;6.07;;;;;;;;;;6286576;22;20003;-84
2022/11/10 13:29:27;;;;;;;12.30;7.10;;;;;;;;;;6259165;22;20008;-84
2022/11/10 13:31:54;;;;;;;10.90;6.43;;;;;;;;;;6286783;22;20027;-83
2022/11/10 13:34:27;;;;;;;8.93;6.03;;;;;;;;;;6260794;22;20008;-84
2022/11/10 13:36:53;;;;;;;9.23;5.35;;;;;;;;;;6288737;22;20030;-80
2022/11/10 13:39:21;;;;;;;10.90;6.55;;;;;;;;;;6284607;22;20369;-83
2022/11/10 13:41:56;;;;;;;11.05;6.07;;;;;;;;;;6260583;22;20343;-83
2022/11/10 13:44:39;;;;;;;10.15;6.38;;;;;;;;;;6259371;22;20351;-84
2022/11/10 13:47:05;;;;;;;11.20;6.63;;;;;;;;;;6287852;22;20000;-82
2022/11/10 13:49:37;;;;;;;11.27;6.95;;;;;;;;;;6288692;22;20059;-83
2022/11/10 13:52:10;;;;;;;11.05;6.93;;;;;;;;;;6261147;22;20390;-83
2022/11/10 13:54:56;;;;;;;12.27;6.80;;;;;;;;;;6285360;22;20073;-83
2022/11/10 13:57:30;;;;;;;9.40;5.85;;;;;;;;;;6284994;22;20003;-84
2022/11/10 13:59:59;;;;;;;10.40;6.10;;;;;;;;;;6285179;22;20000;-85
2022/11/10 14:02:40;;;;;;;11.02;6.40;;;;;;;;;;6287353;22;20010;-83
2022/11/10 14:05:07;;;;;;;9.50;6.40;;;;;;;;;;6284675;22;20000;-83
2022/11/10 14:07:42;;;;;;;11.43;6.65;;;;;;;;;;6257483;22;20000;-83
2022/11/10 14:10:14;;;;;;;9.73;6.18;;;;;;;;;;6258636;22;20030;-84
2022/11/10 14:12:46;;;;;;;10.00;5.93;;;;;;;;;;6257236;22;20031;-83
2022/11/10 14:15:15;;;;;;;9.77;6.22;;;;;;;;;;6284820;22;19996;-83
2022/11/10 14:17:44;;;;;;;11.90;7.88;;;;;;;;;;6284201;22;20030;-83
2022/11/10 14:20:28;;;;;;;12.95;7.38;;;;;;;;;;6287279;22;20020;-84
2022/11/10 14:22:55;;;;;;;11.20;6.35;;;;;;;;;;6259487;22;20061;-83
2022/11/10 14:25:24;;;;;;;9.55;6.43;;;;;;;;;;6257533;22;20010;-83
2022/11/10 14:27:50;;;;;;;11.48;6.55;;;;;;;;;;6283430;22;20037;-82
2022/11/10 14:30:20;;;;;;;10.95;6.90;;;;;;;;;;6256859;22;20055;-84
2022/11/10 14:32:54;;;;;;;9.98;6.18;;;;;;;;;;6283845;22;20003;-83
2022/11/10 14:35:21;;;;;;;11.43;6.82;;;;;;;;;;6284123;22;20041;-83
2022/11/10 14:37:48;;;;;;;10.95;7.00;;;;;;;;;;6256291;22;20083;-83
2022/11/10 14:40:17;;;;;;;11.30;7.03;;;;;;;;;;6284720;22;20002;-83
2022/11/10 14:42:44;;;;;;;13.82;7.38;;;;;;;;;;6258237;22;20011;-85
2022/11/10 14:45:28;;;;;;;12.57;6.90;;;;;;;;;;6285682;22;20026;-84
2022/11/10 14:47:59;;;;;;;11.93;6.72;;;;;;;;;;6284851;22;20006;-84